createdAt,value
2022-10-05T00:00:16.478Z,89.04
2022-10-05T00:02:43.628Z,89.10
2022-10-05T00:05:26.852Z,88.43
2022-10-05T00:07:56.711Z,88.62
2022-10-05T00:10:24.143Z,88.58
2022-10-05T00:12:53.630Z,88.79
2022-10-05T00:15:22.309Z,88.36
2022-10-05T00:17:49.013Z,88.35
2022-10-05T00:20:15.961Z,88.24
2022-10-05T00:22:42.569Z,88.26
2022-10-05T00:25:20.935Z,88.64
2022-10-05T00:27:58.679Z,88.65
2022-10-05T00:30:31.121Z,88.59
2022-10-05T00:32:59.835Z,88.92
2022-10-05T00:35:29.410Z,88.30
2022-10-05T00:37:56.427Z,88.60
2022-10-05T00:40:59.869Z,88.95
2022-10-05T00:43:44.771Z,89.23
2022-10-05T00:46:34.074Z,89.64
2022-10-05T00:49:20.226Z,89.65
2022-10-05T00:52:11.400Z,89.91
2022-10-05T00:54:47.860Z,89.81
2022-10-05T00:57:28.548Z,89.24
2022-10-05T01:00:06.581Z,89.26
2022-10-05T01:02:40.287Z,89.12
2022-10-05T01:05:19.860Z,89.15
2022-10-05T01:08:11.223Z,89.15
2022-10-05T01:10:37.877Z,89.61
2022-10-05T01:13:28.894Z,89.12
2022-10-05T01:16:18.541Z,89.14
2022-10-05T01:19:09.302Z,89.17
2022-10-05T01:21:54.228Z,88.91
2022-10-05T01:24:32.741Z,89.50
2022-10-05T01:27:15.667Z,89.44
2022-10-05T01:30:27.545Z,89.51
2022-10-05T01:33:09.362Z,89.52
2022-10-05T01:35:54.680Z,89.61
2022-10-05T01:38:38.499Z,89.83
2022-10-05T01:41:40.104Z,90.08
2022-10-05T01:44:09.821Z,90.20
2022-10-05T01:46:39.089Z,90.47
2022-10-05T01:49:36.114Z,90.33
2022-10-05T01:52:13.219Z,90.48
2022-10-05T01:54:51.839Z,90.49
2022-10-05T01:57:46.203Z,90.47
2022-10-05T02:00:19.981Z,90.05
2022-10-05T02:03:01.624Z,89.62
2022-10-05T02:05:38.996Z,89.56
2022-10-05T02:08:12.469Z,89.90
2022-10-05T02:10:56.108Z,90.41
2022-10-05T02:13:30.461Z,90.71
2022-10-05T02:16:02.301Z,90.71
2022-10-05T02:18:38.795Z,90.63
2022-10-05T02:21:05.740Z,90.51
2022-10-05T02:23:36.462Z,90.36
2022-10-05T02:26:04.906Z,90.12
2022-10-05T02:28:50.980Z,89.98
2022-10-05T02:31:22.947Z,89.98
2022-10-05T02:33:49.656Z,90.00
2022-10-05T02:36:20.071Z,89.37
2022-10-05T02:38:56.089Z,89.33
2022-10-05T02:41:51.990Z,88.94
2022-10-05T02:44:30.407Z,88.59
2022-10-05T02:47:28.015Z,88.67
2022-10-05T02:50:03.479Z,88.81
2022-10-05T02:52:45.182Z,88.79
2022-10-05T02:55:40.484Z,88.86
2022-10-05T02:58:27.658Z,88.73
2022-10-05T03:01:12.521Z,88.90
2022-10-05T03:04:11.790Z,89.05
2022-10-05T03:07:16.143Z,89.07
2022-10-05T03:10:00.907Z,88.91
2022-10-05T03:15:40.189Z,89.05
2022-10-05T03:18:19.168Z,89.37
2022-10-05T03:21:01.476Z,89.87
2022-10-05T03:23:57.615Z,90.34
2022-10-05T03:26:39.602Z,90.12
2022-10-05T03:29:35.235Z,90.44
2022-10-05T03:32:05.180Z,90.77
2022-10-05T03:34:46.559Z,90.94
2022-10-05T03:37:28.189Z,91.37
2022-10-05T03:40:15.042Z,91.13
2022-10-05T03:43:31.616Z,91.16
2022-10-05T03:46:04.797Z,90.90
2022-10-05T03:49:22.513Z,90.64
2022-10-05T03:51:56.316Z,90.15
2022-10-05T03:54:32.773Z,90.08
2022-10-05T03:57:11.484Z,90.57
2022-10-05T04:00:06.364Z,90.68
2022-10-05T04:02:56.012Z,90.69
2022-10-05T04:05:29.994Z,90.77
2022-10-05T04:08:02.936Z,90.91
2022-10-05T04:10:39.813Z,90.63
2022-10-05T04:13:14.366Z,90.76
2022-10-05T04:15:51.792Z,90.74
2022-10-05T04:18:23.608Z,90.94
2022-10-05T04:20:56.359Z,90.85
2022-10-05T04:23:49.597Z,90.98
2022-10-05T04:26:25.806Z,91.15
2022-10-05T04:29:17.378Z,91.13
2022-10-05T04:32:13.476Z,91.41
2022-10-05T04:34:48.635Z,91.19
2022-10-05T04:37:23.704Z,91.21
2022-10-05T04:40:16.414Z,91.25
2022-10-05T04:42:50.845Z,90.76
2022-10-05T04:45:33.994Z,90.55
2022-10-05T04:48:21.895Z,90.37
2022-10-05T04:51:13.440Z,89.84
2022-10-05T04:53:51.397Z,89.67
2022-10-05T04:56:25.516Z,89.80
2022-10-05T04:59:21.995Z,89.57
2022-10-05T05:02:00.453Z,89.43
2022-10-05T05:05:02.567Z,89.81
2022-10-05T05:07:55.696Z,89.63
2022-10-05T05:10:41.027Z,89.87
2022-10-05T05:13:13.520Z,90.35
2022-10-05T05:15:47.083Z,90.87
2022-10-05T05:18:37.767Z,91.14
2022-10-05T05:21:13.581Z,91.53
2022-10-05T05:23:49.049Z,91.65
2022-10-05T05:26:49.879Z,92.07
2022-10-05T05:29:38.088Z,92.36
2022-10-05T05:32:31.174Z,92.56
2022-10-05T05:35:14.525Z,92.61
2022-10-05T05:37:52.413Z,92.98
2022-10-05T05:40:25.245Z,93.33
2022-10-05T05:43:02.466Z,93.70
2022-10-05T05:45:42.660Z,93.93
2022-10-05T05:48:52.634Z,93.94
2022-10-05T05:51:39.588Z,94.25
2022-10-05T05:54:18.644Z,94.18
2022-10-05T05:56:53.386Z,94.06
2022-10-05T05:59:38.257Z,93.87
2022-10-05T06:02:10.751Z,93.72
2022-10-05T06:04:49.869Z,93.46
2022-10-05T06:07:30.548Z,93.79
2022-10-05T06:10:29.260Z,93.79
2022-10-05T06:13:01.678Z,93.49
2022-10-05T06:15:34.818Z,93.39
2022-10-05T06:18:09.755Z,93.00
2022-10-05T06:20:45.541Z,92.61
2022-10-05T06:23:20.591Z,92.15
2022-10-05T06:26:16.693Z,91.77
2022-10-05T06:28:44.347Z,91.63
2022-10-05T06:31:29.884Z,91.06
2022-10-05T06:34:39.390Z,89.82
2022-10-05T06:37:13.278Z,89.21
2022-10-05T06:39:42.833Z,88.89
2022-10-05T06:42:44.743Z,89.03
2022-10-05T06:45:38.561Z,88.84
2022-10-05T06:48:17.050Z,88.78
2022-10-05T06:50:55.959Z,88.42
2022-10-05T06:53:54.184Z,88.16
2022-10-05T06:56:31.415Z,88.33
2022-10-05T06:59:17.613Z,88.09
2022-10-05T07:01:50.715Z,87.97
2022-10-05T07:04:20.311Z,87.99
2022-10-05T07:07:18.508Z,87.67
2022-10-05T07:10:03.457Z,88.35
2022-10-05T07:13:03.072Z,88.29
2022-10-05T07:15:36.582Z,88.10
2022-10-05T07:18:17.585Z,87.64
2022-10-05T07:20:56.154Z,86.82
2022-10-05T07:23:33.617Z,86.50
2022-10-05T07:26:18.011Z,86.24
2022-10-05T07:29:17.299Z,85.69
2022-10-05T07:31:57.747Z,85.67
2022-10-05T07:34:33.308Z,85.21
2022-10-05T07:37:31.725Z,85.31
2022-10-05T07:40:10.815Z,85.51
2022-10-05T07:42:51.454Z,85.92
2022-10-05T07:45:26.721Z,85.30
2022-10-05T07:47:56.964Z,84.35
2022-10-05T07:50:36.913Z,84.36
2022-10-05T07:53:33.469Z,83.89
2022-10-05T07:56:13.534Z,84.02
2022-10-05T07:58:54.693Z,83.49
2022-10-05T08:01:38.702Z,83.49
2022-10-05T08:04:15.746Z,83.11
2022-10-05T08:06:58.004Z,83.07
2022-10-05T08:09:42.245Z,82.76
2022-10-05T08:12:11.845Z,82.11
2022-10-05T08:14:52.977Z,82.23
2022-10-05T08:17:52.904Z,80.95
2022-10-05T08:20:50.610Z,80.22
2022-10-05T08:23:39.428Z,79.95
2022-10-05T08:26:06.401Z,80.31
2022-10-05T08:28:39.938Z,80.39
2022-10-05T08:31:53.843Z,79.85
2022-10-05T08:34:51.627Z,80.16
2022-10-05T08:37:32.604Z,79.95
2022-10-05T08:40:21.936Z,79.12
2022-10-05T08:43:07.439Z,79.32
2022-10-05T08:45:57.416Z,78.91
2022-10-05T08:49:05.441Z,79.57
2022-10-05T08:51:44.551Z,79.94
2022-10-05T08:54:23.265Z,80.31
2022-10-05T08:57:18.212Z,80.37
2022-10-05T09:00:10.680Z,80.53
2022-10-05T09:03:20.745Z,79.93
2022-10-05T09:06:09.515Z,79.65
2022-10-05T09:08:48.093Z,79.56
2022-10-05T09:11:17.840Z,79.22
2022-10-05T09:14:05.451Z,78.47
2022-10-05T09:16:59.015Z,77.47
2022-10-05T09:19:47.223Z,76.83
2022-10-05T09:22:32.684Z,75.33
2022-10-05T09:25:20.281Z,73.95
2022-10-05T09:27:54.924Z,74.01
2022-10-05T09:30:48.416Z,73.76
2022-10-05T09:33:52.032Z,74.66
2022-10-05T09:36:27.441Z,75.50
2022-10-05T09:39:05.967Z,75.98
2022-10-05T09:41:35.618Z,75.94
2022-10-05T09:44:40.494Z,75.66
2022-10-05T09:47:45.277Z,74.80
2022-10-05T09:50:49.448Z,75.63
2022-10-05T09:53:46.659Z,76.13
2022-10-05T09:57:04.231Z,75.98
2022-10-05T10:00:03.529Z,75.37
2022-10-05T10:02:49.301Z,74.73
2022-10-05T10:05:34.017Z,73.82
2022-10-05T10:08:00.479Z,72.70
2022-10-05T10:11:00.479Z,72.55
2022-10-05T10:13:53.804Z,72.06
2022-10-05T10:16:57.774Z,70.92
2022-10-05T10:19:51.750Z,69.58
2022-10-05T10:22:39.706Z,69.19
2022-10-05T10:25:21.840Z,68.98
2022-10-05T10:28:20.054Z,68.57
2022-10-05T10:31:01.395Z,68.33
2022-10-05T10:33:46.489Z,66.92
2022-10-05T10:36:19.841Z,67.14
2022-10-05T10:39:01.542Z,65.84
2022-10-05T10:42:03.421Z,65.61
2022-10-05T10:44:48.843Z,65.33
2022-10-05T10:47:50.559Z,65.66
2022-10-05T10:50:29.112Z,66.60
2022-10-05T10:53:02.940Z,67.13
2022-10-05T10:56:00.190Z,67.57
2022-10-05T11:01:06.355Z,67.37
2022-10-05T11:03:40.258Z,66.70
2022-10-05T11:06:32.675Z,67.39
2022-10-05T11:09:30.220Z,62.88
2022-10-05T11:12:15.716Z,63.93
2022-10-05T11:15:07.002Z,62.24
2022-10-05T11:18:02.823Z,62.68
2022-10-05T11:20:35.246Z,64.02
2022-10-05T11:23:39.265Z,62.98
2022-10-05T11:26:45.222Z,60.28
2022-10-05T11:29:51.485Z,60.00
2022-10-05T11:32:23.798Z,58.13
2022-10-05T11:35:08.613Z,58.97
2022-10-05T11:37:47.236Z,58.67
2022-10-05T11:40:33.681Z,58.00
2022-10-05T11:43:38.173Z,58.22
2022-10-05T11:46:30.142Z,58.80
2022-10-05T11:49:00.724Z,59.49
2022-10-05T11:51:28.905Z,59.84
2022-10-05T11:54:17.611Z,59.18
2022-10-05T11:57:00.550Z,59.61
2022-10-05T11:59:34.740Z,58.19
2022-10-05T12:02:39.965Z,55.20
2022-10-05T12:05:32.883Z,56.82
2022-10-05T12:07:59.429Z,56.75
2022-10-05T12:10:51.823Z,55.96
2022-10-05T12:13:24.389Z,56.62
2022-10-05T12:15:57.328Z,58.14
2022-10-05T12:18:30.228Z,58.10
2022-10-05T12:21:22.885Z,57.68
2022-10-05T12:23:56.861Z,57.04
2022-10-05T12:26:32.861Z,57.43
2022-10-05T12:29:19.982Z,56.94
2022-10-05T12:32:11.795Z,57.51
2022-10-05T12:34:48.887Z,57.22
2022-10-05T12:37:42.795Z,56.82
2022-10-05T12:40:15.336Z,56.04
2022-10-05T12:42:54.766Z,55.89
2022-10-05T12:45:57.305Z,54.41
2022-10-05T12:48:57.820Z,54.83
2022-10-05T12:51:51.362Z,55.58
2022-10-05T12:54:45.062Z,56.68
2022-10-05T12:57:48.304Z,57.26
2022-10-05T13:00:22.907Z,57.95
2022-10-05T13:03:12.876Z,57.87
2022-10-05T13:05:39.475Z,57.77
2022-10-05T13:08:24.907Z,56.63
2022-10-05T13:11:02.221Z,55.54
2022-10-05T13:13:42.176Z,55.09
2022-10-05T13:16:17.820Z,55.21
2022-10-05T13:19:17.114Z,54.89
2022-10-05T13:21:47.698Z,54.63
2022-10-05T13:24:20.637Z,54.57
2022-10-05T13:27:01.823Z,55.02
2022-10-05T13:29:54.220Z,54.09
2022-10-05T13:32:24.630Z,52.65
2022-10-05T13:35:28.784Z,50.64
2022-10-05T13:38:07.597Z,51.47
2022-10-05T13:41:11.615Z,51.65
2022-10-05T13:43:47.962Z,52.18
2022-10-05T13:46:28.981Z,52.06
2022-10-05T13:49:14.253Z,51.06
2022-10-05T13:51:45.834Z,51.14
2022-10-05T13:54:15.516Z,52.50
2022-10-05T13:56:46.167Z,53.06
2022-10-05T13:59:51.398Z,52.85
2022-10-05T14:02:21.064Z,52.57
2022-10-05T14:05:26.971Z,51.14
2022-10-05T14:07:56.637Z,50.76
2022-10-05T14:10:32.884Z,49.58
2022-10-05T14:12:59.891Z,49.12
2022-10-05T14:15:32.816Z,49.90
2022-10-05T14:17:59.369Z,49.35
2022-10-05T14:20:31.601Z,49.37
2022-10-05T14:23:00.919Z,50.06
2022-10-05T14:25:30.762Z,49.13
2022-10-05T14:28:03.401Z,50.68
2022-10-05T14:30:31.120Z,50.30
2022-10-05T14:33:03.370Z,49.44
2022-10-05T14:35:30.910Z,48.23
2022-10-05T14:37:59.953Z,50.74
2022-10-05T14:40:29.107Z,49.47
2022-10-05T14:42:57.409Z,49.18
2022-10-05T14:45:30.067Z,48.96
2022-10-05T14:48:10.083Z,48.52
2022-10-05T14:50:49.565Z,49.46
2022-10-05T14:53:20.058Z,51.14
2022-10-05T14:55:58.945Z,51.86
2022-10-05T14:58:25.462Z,52.42
2022-10-05T15:01:04.260Z,53.42
2022-10-05T15:03:46.798Z,55.96
2022-10-05T15:06:20.503Z,58.80
2022-10-05T15:09:17.681Z,60.48
2022-10-05T15:11:50.698Z,62.01
2022-10-05T15:14:22.739Z,62.53
2022-10-05T15:17:02.578Z,62.54
2022-10-05T15:19:50.992Z,62.79
2022-10-05T15:22:26.809Z,63.87
2022-10-05T15:25:03.553Z,65.16
2022-10-05T15:28:08.889Z,66.09
2022-10-05T15:30:40.062Z,64.85
2022-10-05T15:33:13.074Z,65.62
2022-10-05T15:36:24.630Z,67.16
2022-10-05T15:39:36.215Z,68.12
2022-10-05T15:42:11.905Z,68.95
2022-10-05T15:44:38.808Z,69.06
2022-10-05T15:47:14.315Z,69.92
2022-10-05T15:50:11.048Z,71.03
2022-10-05T15:52:51.285Z,71.44
2022-10-05T15:55:25.406Z,71.34
2022-10-05T15:58:07.937Z,71.17
2022-10-05T16:00:47.470Z,71.30
2022-10-05T16:03:27.204Z,71.53
2022-10-05T16:06:24.670Z,72.23
2022-10-05T16:09:29.209Z,72.09
2022-10-05T16:12:15.475Z,72.45
2022-10-05T16:14:53.469Z,72.85
2022-10-05T16:17:56.977Z,72.81
2022-10-05T16:20:44.660Z,72.40
2022-10-05T16:23:24.110Z,72.98
2022-10-05T16:26:00.090Z,72.82
2022-10-05T16:28:56.190Z,73.48
2022-10-05T16:31:37.537Z,73.10
2022-10-05T16:34:45.140Z,73.87
2022-10-05T16:37:29.465Z,74.10
2022-10-05T16:40:02.635Z,74.68
2022-10-05T16:43:11.184Z,75.13
2022-10-05T16:46:13.849Z,75.08
2022-10-05T16:48:48.232Z,74.94
2022-10-05T16:51:23.554Z,75.37
2022-10-05T16:54:18.988Z,75.00
2022-10-05T16:57:05.867Z,75.44
2022-10-05T17:00:18.789Z,75.90
2022-10-05T17:06:09.791Z,76.02
2022-10-05T17:08:49.756Z,76.46
2022-10-05T17:11:25.334Z,76.45
2022-10-05T17:14:16.904Z,76.44
2022-10-05T17:16:50.419Z,76.34
2022-10-05T17:19:25.166Z,76.42
2022-10-05T17:22:17.367Z,77.16
2022-10-05T17:25:03.757Z,76.77
2022-10-05T17:28:15.189Z,76.91
2022-10-05T17:30:54.241Z,77.68
2022-10-05T17:33:31.349Z,78.29
2022-10-05T17:36:04.908Z,78.62
2022-10-05T17:38:31.698Z,78.29
2022-10-05T17:41:21.853Z,79.25
2022-10-05T17:44:06.889Z,79.39
2022-10-05T17:46:46.057Z,79.41
2022-10-05T17:49:39.836Z,79.42
2022-10-05T17:52:44.951Z,79.05
2022-10-05T17:55:34.114Z,79.51
2022-10-05T17:58:23.956Z,79.56
2022-10-05T18:00:57.101Z,79.76
2022-10-05T18:03:50.370Z,80.24
2022-10-05T18:06:25.833Z,80.74
2022-10-05T18:09:14.287Z,80.65
2022-10-05T18:11:43.273Z,80.91
2022-10-05T18:14:27.064Z,80.04
2022-10-05T18:17:02.638Z,79.80
2022-10-05T18:19:33.263Z,80.21
2022-10-05T18:21:59.875Z,80.19
2022-10-05T18:24:53.221Z,80.54
2022-10-05T18:27:35.010Z,80.78
2022-10-05T18:30:12.791Z,80.86
2022-10-05T18:33:03.527Z,80.98
2022-10-05T18:35:47.790Z,81.21
2022-10-05T18:38:41.121Z,81.22
2022-10-05T18:41:26.967Z,80.77
2022-10-05T18:44:04.637Z,81.48
2022-10-05T18:46:50.591Z,81.72
2022-10-05T18:49:32.402Z,81.58
2022-10-05T18:52:32.562Z,82.07
2022-10-05T18:55:02.242Z,81.96
2022-10-05T18:57:44.093Z,82.05
2022-10-05T19:00:18.990Z,82.43
2022-10-05T19:02:58.100Z,82.77
2022-10-05T19:06:13.045Z,83.62
2022-10-05T19:09:02.502Z,84.11
2022-10-05T19:12:19.315Z,84.13
2022-10-05T19:14:55.010Z,83.58
2022-10-05T19:17:46.273Z,83.41
2022-10-05T19:20:36.979Z,84.20
2022-10-05T19:23:09.543Z,84.42
2022-10-05T19:25:37.845Z,84.54
2022-10-05T19:28:17.583Z,83.70
2022-10-05T19:30:44.290Z,83.75
2022-10-05T19:33:20.371Z,84.07
2022-10-05T19:35:50.825Z,84.19
2022-10-05T19:38:29.515Z,83.88
2022-10-05T19:41:11.489Z,83.74
2022-10-05T19:43:56.385Z,84.33
2022-10-05T19:46:54.496Z,84.30
2022-10-05T19:49:45.074Z,84.73
2022-10-05T19:52:45.198Z,85.08
2022-10-05T19:55:31.180Z,84.92
2022-10-05T19:58:02.034Z,84.86
2022-10-05T20:00:37.242Z,84.90
2022-10-05T20:03:12.454Z,84.96
2022-10-05T20:05:40.134Z,84.63
2022-10-05T20:08:08.032Z,84.57
2022-10-05T20:10:37.675Z,84.54
2022-10-05T20:13:05.113Z,84.32
2022-10-05T20:15:54.953Z,84.63
2022-10-05T20:19:06.570Z,84.98
2022-10-05T20:21:44.025Z,85.19
2022-10-05T20:24:23.638Z,85.16
2022-10-05T20:27:12.606Z,85.95
2022-10-05T20:29:43.443Z,86.06
2022-10-05T20:32:20.498Z,86.09
2022-10-05T20:34:49.375Z,86.14
2022-10-05T20:37:18.228Z,86.22
2022-10-05T20:39:45.526Z,86.20
2022-10-05T20:42:12.202Z,86.50
2022-10-05T20:44:38.852Z,86.55
2022-10-05T20:47:09.504Z,86.43
2022-10-05T20:49:39.727Z,86.12
2022-10-05T20:52:10.023Z,86.29
2022-10-05T20:54:38.665Z,85.84
2022-10-05T20:57:06.631Z,86.40
2022-10-05T20:59:34.520Z,86.14
2022-10-05T21:02:01.710Z,85.95
2022-10-05T21:04:40.923Z,86.23
2022-10-05T21:07:08.403Z,86.68
2022-10-05T21:09:38.086Z,86.95
2022-10-05T21:12:05.022Z,86.88
2022-10-05T21:14:34.390Z,87.05
2022-10-05T21:17:02.038Z,86.99
2022-10-05T21:19:34.198Z,87.09
2022-10-05T21:22:03.318Z,86.85
2022-10-05T21:24:30.032Z,86.57
2022-10-05T21:26:57.593Z,87.15
2022-10-05T21:29:24.439Z,86.67
2022-10-05T21:31:51.266Z,87.01
2022-10-05T21:34:18.108Z,86.91
2022-10-05T21:36:44.764Z,86.89
2022-10-05T21:39:11.396Z,87.48
2022-10-05T21:41:37.999Z,87.34
2022-10-05T21:44:06.334Z,87.49
2022-10-05T21:46:36.086Z,87.84
2022-10-05T21:49:02.775Z,87.77
2022-10-05T21:51:29.523Z,87.73
2022-10-05T21:54:03.031Z,87.37
2022-10-05T21:56:35.131Z,87.39
2022-10-05T21:59:09.531Z,87.29
2022-10-05T22:01:36.718Z,87.30
2022-10-05T22:04:05.157Z,87.14
2022-10-05T22:06:32.343Z,87.10
2022-10-05T22:08:59.676Z,87.18
2022-10-05T22:11:28.080Z,87.32
2022-10-05T22:13:55.299Z,86.58
2022-10-05T22:16:23.818Z,86.68
2022-10-05T22:18:53.734Z,86.82
2022-10-05T22:21:21.265Z,87.04
2022-10-05T22:23:48.543Z,87.08
2022-10-05T22:26:19.145Z,86.84
2022-10-05T22:28:47.074Z,87.16
2022-10-05T22:31:14.560Z,87.04
2022-10-05T22:33:41.427Z,87.43
2022-10-05T22:36:08.741Z,87.22
2022-10-05T22:38:35.507Z,87.10
2022-10-05T22:41:02.326Z,87.01
2022-10-05T22:43:29.082Z,87.13
2022-10-05T22:45:56.344Z,87.33
2022-10-05T22:48:23.392Z,87.34
2022-10-05T22:50:50.035Z,87.20
2022-10-05T22:53:16.779Z,87.63
2022-10-05T22:55:43.452Z,87.80
2022-10-05T22:58:10.063Z,87.58
2022-10-05T23:00:57.115Z,87.67
2022-10-05T23:03:23.429Z,87.55
2022-10-05T23:05:56.826Z,87.17
2022-10-05T23:08:23.435Z,87.23
2022-10-05T23:10:50.066Z,87.43
2022-10-05T23:13:16.711Z,87.68
2022-10-05T23:15:44.955Z,87.80
2022-10-05T23:18:12.183Z,87.74
2022-10-05T23:20:40.233Z,87.83
2022-10-05T23:23:07.621Z,87.87
2022-10-05T23:25:34.451Z,87.48
2022-10-05T23:28:02.681Z,86.89
2022-10-05T23:30:29.629Z,87.02
2022-10-05T23:32:56.440Z,86.77
2022-10-05T23:35:23.629Z,87.32
2022-10-05T23:37:50.261Z,87.21
2022-10-05T23:40:16.824Z,87.63
2022-10-05T23:42:43.424Z,87.81
2022-10-05T23:45:12.236Z,87.91
2022-10-05T23:47:39.807Z,87.77
2022-10-05T23:50:08.263Z,88.02
2022-10-05T23:52:35.972Z,88.01
2022-10-05T23:55:04.532Z,87.79
2022-10-05T23:57:31.933Z,88.04
2022-10-05T23:59:58.703Z,88.50
